Beaver Airport


Codes: PAWB/WBQ
Name: Beaver Airport
City: Beaver
Country: United States
Elevation: 359 ft.

Photos at Beaver Airport


   Photos courtesy of SpottingLog. You can add your own sightings and photos by signing up for a free trial today.



No photos found.

Weather at Beaver Airport


Time (UTC)DescriptionTempratureWindCloud coverageVisibilityPressureHumidity
23-May-2024 18:00Overcast Clouds11°C9 mph, W100%10000m1009hPa65%
23-May-2024 21:00Overcast Clouds12°C9 mph, SW100%10000m1009hPa60%
24-May-2024 00:00Overcast Clouds15°C9 mph, SW90%10000m1008hPa53%
24-May-2024 03:00Broken Clouds16°C9 mph, SW80%10000m1007hPa48%
24-May-2024 06:00Overcast Clouds11°C9 mph, SW88%10000m1008hPa65%
24-May-2024 09:00Overcast Clouds9°C2 mph, W100%10000m1009hPa79%
24-May-2024 12:00Light Rain8°C4 mph, NE100%10000m1009hPa86%
24-May-2024 15:00Light Rain7°C7 mph, NE100%10000m1009hPa79%
24-May-2024 18:00Overcast Clouds6°C9 mph, NE100%10000m1009hPa78%
24-May-2024 21:00Light Rain4°C7 mph, NE100%1733m1009hPa94%
25-May-2024 00:00Light Rain7°C4 mph, E100%10000m1008hPa71%
25-May-2024 03:00Overcast Clouds7°C7 mph, E100%10000m1008hPa78%
25-May-2024 06:00Light Rain5°C9 mph, E100%10000m1008hPa88%
25-May-2024 09:00Overcast Clouds4°C9 mph, NE100%10000m1009hPa88%
25-May-2024 12:00Overcast Clouds3°C11 mph, NE96%10000m1010hPa80%
25-May-2024 15:00Broken Clouds3°C11 mph, NE81%10000m1010hPa67%
25-May-2024 18:00Broken Clouds6°C13 mph, NE65%10000m1010hPa50%
25-May-2024 21:00Few Clouds10°C13 mph, NE23%10000m1009hPa40%
26-May-2024 00:00Scattered Clouds11°C13 mph, NE41%10000m1008hPa35%
26-May-2024 03:00Broken Clouds11°C16 mph, NE79%10000m1009hPa40%
26-May-2024 06:00Broken Clouds7°C13 mph, NE69%10000m1010hPa55%
26-May-2024 09:00Broken Clouds3°C13 mph, NE80%10000m1012hPa63%
26-May-2024 12:00Overcast Clouds2°C11 mph, NE88%10000m1013hPa67%
26-May-2024 15:00Overcast Clouds3°C13 mph, NE94%10000m1013hPa57%
26-May-2024 18:00Overcast Clouds5°C13 mph, NE93%10000m1013hPa52%
26-May-2024 21:00Overcast Clouds7°C11 mph, NE100%10000m1012hPa45%
27-May-2024 00:00Overcast Clouds9°C11 mph, NE100%10000m1011hPa46%
27-May-2024 03:00Overcast Clouds9°C9 mph, NE100%10000m1011hPa47%
27-May-2024 06:00Overcast Clouds8°C7 mph, NE100%10000m1011hPa56%
27-May-2024 09:00Overcast Clouds6°C9 mph, NE100%10000m1012hPa65%
27-May-2024 12:00Overcast Clouds4°C7 mph, NE98%10000m1012hPa73%
27-May-2024 15:00Broken Clouds5°C7 mph, NE77%10000m1013hPa65%
27-May-2024 18:00Broken Clouds9°C4 mph, NE65%10000m1012hPa50%
27-May-2024 21:00Broken Clouds12°C2 mph, E79%10000m1011hPa42%
28-May-2024 00:00Overcast Clouds14°C0 mph, NW88%10000m1010hPa38%
28-May-2024 03:00Overcast Clouds14°C2 mph, W93%10000m1010hPa38%
28-May-2024 06:00Overcast Clouds12°C2 mph, W92%10000m1010hPa51%
28-May-2024 09:00Scattered Clouds8°C2 mph, W33%10000m1011hPa62%
28-May-2024 12:00Few Clouds6°C4 mph, W21%10000m1011hPa69%
28-May-2024 15:00Clear Sky10°C4 mph, W9%10000m1011hPa58%